Time;durP1;ratioP1;P1;durP2;ratioP2;P2;SDS_P1;SDS_P2;PMS_P1;PMS_P2;Temp;Humidity;BMP_temperature;BMP_pressure;BME280_temperature;BME280_humidity;BME280_pressure;Samples;Min_cycle;Max_cycle;Signal;HPM_P1;HPM_P2
2020/12/18 00:02:26;;;;;;;21.88;7.80;;;;;;;7.01;100.00;100856.03;5062203;28;20102;-76
2020/12/18 00:04:51;;;;;;;23.23;7.78;;;;;;;7.01;100.00;100860.75;5074967;28;20079;-76
2020/12/18 00:07:19;;;;;;;24.90;8.23;;;;;;;7.00;100.00;100856.31;5063991;28;20063;-76
2020/12/18 00:09:44;;;;;;;20.63;7.10;;;;;;;6.99;100.00;100851.88;5059306;28;20028;-76
2020/12/18 00:12:10;;;;;;;22.50;8.15;;;;;;;7.01;100.00;100850.53;5029729;28;20062;-76
2020/12/18 00:14:36;;;;;;;24.95;7.50;;;;;;;7.01;100.00;100855.22;5046265;28;20055;-76
2020/12/18 00:17:03;;;;;;;21.42;7.82;;;;;;;7.01;100.00;100860.75;5062688;28;20027;-76
2020/12/18 00:19:29;;;;;;;26.65;8.63;;;;;;;7.02;100.00;100856.88;5077246;28;20024;-76
2020/12/18 00:21:55;;;;;;;23.15;9.00;;;;;;;7.06;100.00;100853.34;5056157;28;20445;-76
2020/12/18 00:24:21;;;;;;;24.70;9.10;;;;;;;7.08;100.00;100853.09;5058768;28;20040;-76
2020/12/18 00:26:49;;;;;;;25.63;8.55;;;;;;;7.08;100.00;100844.81;5043276;28;20028;-76
2020/12/18 00:29:15;;;;;;;28.38;8.40;;;;;;;7.12;100.00;100848.69;5034478;28;20489;-76
2020/12/18 00:31:41;;;;;;;22.70;7.57;;;;;;;7.17;100.00;100837.69;5059950;28;20047;-76
2020/12/18 00:34:06;;;;;;;21.92;8.18;;;;;;;7.19;100.00;100841.03;5062031;28;20550;-76
2020/12/18 00:36:32;;;;;;;21.40;9.43;;;;;;;7.22;100.00;100834.16;5062812;28;20392;-76
2020/12/18 00:38:58;;;;;;;26.55;8.95;;;;;;;7.23;100.00;100833.88;5043903;28;20039;-76
2020/12/18 00:41:23;;;;;;;24.25;8.32;;;;;;;7.25;100.00;100828.91;5061760;28;20040;-76
2020/12/18 00:43:49;;;;;;;26.08;9.23;;;;;;;7.27;100.00;100825.88;5046708;28;20060;-76
2020/12/18 00:46:14;;;;;;;26.40;9.52;;;;;;;7.27;100.00;100823.97;5061971;28;20035;-76
2020/12/18 00:48:40;;;;;;;20.60;8.55;;;;;;;7.26;100.00;100819.53;5063417;28;20028;-76
2020/12/18 00:51:05;;;;;;;28.10;9.60;;;;;;;7.27;100.00;100817.59;5028872;28;20032;-76
2020/12/18 00:53:33;;;;;;;20.38;8.98;;;;;;;7.26;100.00;100815.94;5060989;28;20050;-77
2020/12/18 00:55:59;;;;;;;23.27;9.15;;;;;;;7.26;100.00;100808.47;5076835;28;20073;-76
2020/12/18 00:58:24;;;;;;;26.95;8.40;;;;;;;7.27;100.00;100817.59;5060121;28;20040;-76
2020/12/18 01:00:50;;;;;;;18.48;7.57;;;;;;;7.26;100.00;100816.75;5044098;28;20103;-76
2020/12/18 01:03:16;;;;;;;17.80;8.15;;;;;;;7.25;100.00;100819.81;5092949;28;20040;-77
2020/12/18 01:05:41;;;;;;;24.02;7.97;;;;;;;7.23;100.00;100803.47;5085286;28;20035;-76
2020/12/18 01:08:07;;;;;;;27.58;8.40;;;;;;;7.25;100.00;100801.28;5098243;28;20035;-76
2020/12/18 01:10:32;;;;;;;24.67;8.30;;;;;;;7.23;100.00;100809.00;5078339;28;20084;-76
2020/12/18 01:12:58;;;;;;;25.00;7.25;;;;;;;7.23;100.00;100814.53;5070865;28;20036;-76
2020/12/18 01:15:23;;;;;;;25.33;7.50;;;;;;;7.23;100.00;100799.88;5078939;28;20027;-76
2020/12/18 01:17:49;;;;;;;24.95;8.15;;;;;;;7.22;100.00;100801.81;5060298;28;20031;-76
2020/12/18 01:20:14;;;;;;;19.10;7.50;;;;;;;7.19;100.00;100802.34;5062745;28;20417;-76
2020/12/18 01:22:40;;;;;;;24.73;7.28;;;;;;;7.19;100.00;100818.94;5097265;28;20391;-76
2020/12/18 01:25:08;;;;;;;17.55;6.53;;;;;;;7.18;100.00;100802.59;5065253;28;20032;-77
2020/12/18 01:27:34;;;;;;;24.15;7.50;;;;;;;7.14;100.00;100805.06;5077731;28;20353;-77
2020/12/18 01:29:59;;;;;;;24.08;7.00;;;;;;;7.13;100.00;100808.91;5099200;28;20150;-76
2020/12/18 01:32:27;;;;;;;19.70;6.30;;;;;;;7.12;100.00;100818.31;5077578;28;20111;-76
2020/12/18 01:34:52;;;;;;;22.33;6.38;;;;;;;7.09;100.00;100810.56;5070593;28;20055;-76
2020/12/18 01:37:18;;;;;;;19.15;6.35;;;;;;;7.06;100.00;100822.13;5064574;28;20024;-77
2020/12/18 01:39:44;;;;;;;19.42;5.95;;;;;;;7.02;100.00;100824.59;5045553;28;20089;-76
2020/12/18 01:42:09;;;;;;;21.27;6.20;;;;;;;7.02;100.00;100826.50;5097228;28;20035;-76
2020/12/18 01:44:35;;;;;;;17.95;6.05;;;;;;;6.98;100.00;100820.66;5095837;28;20028;-76
2020/12/18 01:47:00;;;;;;;21.23;5.47;;;;;;;6.99;100.00;100824.25;5066346;28;20480;-77
2020/12/18 01:49:26;;;;;;;20.50;6.10;;;;;;;6.98;100.00;100819.84;5044590;28;20028;-76
2020/12/18 01:51:51;;;;;;;16.20;5.53;;;;;;;6.97;100.00;100818.19;5061372;28;20088;-77
2020/12/18 01:54:17;;;;;;;22.10;5.72;;;;;;;6.96;100.00;100819.25;5042275;28;20419;-76
2020/12/18 01:56:43;;;;;;;18.83;5.18;;;;;;;6.95;100.00;100815.69;5065349;28;20035;-76
2020/12/18 01:59:08;;;;;;;19.10;5.38;;;;;;;6.93;100.00;100826.97;5080825;28;20024;-76
2020/12/18 02:01:34;;;;;;;12.05;4.93;;;;;;;6.93;100.00;100831.66;5045307;28;20028;-76
2020/12/18 02:04:00;;;;;;;16.10;5.43;;;;;;;6.93;100.00;100815.94;5062218;28;20044;-76
2020/12/18 02:06:26;;;;;;;24.67;5.95;;;;;;;6.93;100.00;100817.84;5062160;28;20048;-76
2020/12/18 02:08:51;;;;;;;17.90;5.63;;;;;;;6.94;100.00;100808.50;5097332;28;20468;-76
2020/12/18 02:11:20;;;;;;;17.13;5.18;;;;;;;6.94;100.00;100797.47;5081337;28;20101;-76
2020/12/18 02:13:49;;;;;;;23.00;6.00;;;;;;;6.91;100.00;100796.06;5078414;28;20039;-76
2020/12/18 02:16:15;;;;;;;16.80;6.03;;;;;;;6.89;100.00;100795.47;5062573;28;20495;-76
2020/12/18 02:18:41;;;;;;;16.45;6.18;;;;;;;6.89;100.00;100792.72;5064925;28;20027;-76
2020/12/18 02:21:06;;;;;;;17.80;5.95;;;;;;;6.90;100.00;100794.38;5097806;28;20035;-76
2020/12/18 02:23:32;;;;;;;13.38;5.43;;;;;;;6.89;100.00;100806.50;5064311;28;20038;-76
2020/12/18 02:26:13;;;;;;;11.43;5.32;;;;;;;6.90;100.00;100805.41;5079807;28;20036;-76
2020/12/18 02:28:43;;;;;;;18.25;6.10;;;;;;;6.90;100.00;100793.53;5081343;28;20062;-76
2020/12/18 02:31:09;;;;;;;15.60;5.75;;;;;;;6.90;100.00;100793.53;5070643;28;20035;-76
2020/12/18 02:33:35;;;;;;;12.95;5.53;;;;;;;6.90;100.00;100797.13;5073778;28;20391;-76
2020/12/18 02:36:00;;;;;;;13.75;5.63;;;;;;;6.91;100.00;100795.22;5059880;28;20107;-76
2020/12/18 02:38:26;;;;;;;17.20;5.88;;;;;;;6.93;100.00;100793.00;5062503;28;20024;-76
2020/12/18 02:40:55;;;;;;;19.42;6.07;;;;;;;6.93;100.00;100787.50;5097650;28;20032;-76
2020/12/18 02:43:21;;;;;;;14.95;5.68;;;;;;;6.94;100.00;100787.25;5078996;28;20038;-76
2020/12/18 02:45:47;;;;;;;20.20;5.85;;;;;;;6.96;100.00;100772.31;5077786;28;20028;-76
2020/12/18 02:48:13;;;;;;;17.00;6.53;;;;;;;6.98;100.00;100770.13;5082484;28;20063;-76
2020/12/18 02:50:38;;;;;;;16.27;6.07;;;;;;;7.00;100.00;100773.47;5067582;28;20356;-76
2020/12/18 02:53:18;;;;;;;20.25;6.15;;;;;;;7.02;100.00;100757.44;5085438;28;20043;-76
2020/12/18 02:55:44;;;;;;;18.42;6.00;;;;;;;7.03;100.00;100761.91;5081880;28;20051;-77
2020/12/18 02:58:09;;;;;;;18.98;5.75;;;;;;;7.06;100.00;100751.16;5083761;28;20081;-77
2020/12/18 03:00:35;;;;;;;20.13;6.40;;;;;;;7.08;100.00;100750.91;5083113;28;20107;-76
2020/12/18 03:03:01;;;;;;;14.95;5.97;;;;;;;7.09;100.00;100741.50;5066438;28;20028;-77
2020/12/18 03:05:27;;;;;;;18.27;6.07;;;;;;;7.08;100.00;100731.56;5082124;28;20045;-77
2020/12/18 03:07:53;;;;;;;17.52;5.75;;;;;;;7.08;100.00;100726.03;5082125;28;20034;-76
2020/12/18 03:10:18;;;;;;;16.75;6.15;;;;;;;7.09;100.00;100723.00;5095654;28;20454;-77
2020/12/18 03:12:44;;;;;;;19.90;6.20;;;;;;;7.10;100.00;100729.34;5084586;28;20031;-76
2020/12/18 03:15:12;;;;;;;17.65;5.97;;;;;;;7.06;100.00;100726.28;5077887;28;20067;-77
2020/12/18 03:17:37;;;;;;;17.60;6.20;;;;;;;7.08;100.00;100729.63;5081962;28;20036;-76
2020/12/18 03:20:03;;;;;;;14.75;5.70;;;;;;;7.07;100.00;100727.13;5099552;28;20684;-77
2020/12/18 03:22:31;;;;;;;13.98;5.75;;;;;;;7.09;100.00;100735.97;5118788;28;20036;-76
2020/12/18 03:24:59;;;;;;;16.55;5.80;;;;;;;7.06;100.00;100734.56;5082116;28;20111;-76
2020/12/18 03:27:25;;;;;;;16.00;6.15;;;;;;;7.08;100.00;100734.31;5068226;28;20563;-76
2020/12/18 03:29:51;;;;;;;18.52;5.50;;;;;;;7.07;100.00;100727.13;5098032;28;20487;-76
2020/12/18 03:32:17;;;;;;;16.95;6.75;;;;;;;7.05;100.00;100721.03;5067690;28;20103;-76
2020/12/18 03:34:42;;;;;;;17.35;6.45;;;;;;;7.06;100.00;100728.22;5114432;28;20034;-77
2020/12/18 03:37:08;;;;;;;20.98;6.53;;;;;;;7.03;100.00;100732.34;5080675;28;20027;-76
2020/12/18 03:39:36;;;;;;;15.55;6.72;;;;;;;7.04;100.00;100738.69;5072973;28;20027;-76
2020/12/18 03:42:01;;;;;;;22.50;6.15;;;;;;;7.05;100.00;100740.34;5085271;28;20023;-77
2020/12/18 03:44:27;;;;;;;16.25;7.35;;;;;;;7.06;100.00;100739.28;5050478;28;20089;-77
2020/12/18 03:46:56;;;;;;;17.95;6.70;;;;;;;7.08;100.00;100742.63;5082327;28;20036;-76
2020/12/18 03:49:22;;;;;;;25.38;7.60;;;;;;;7.09;100.00;100738.75;5126861;27;20058;-76
2020/12/18 03:51:48;;;;;;;17.05;8.00;;;;;;;7.10;100.00;100730.19;5068081;28;20483;-76
2020/12/18 03:54:13;;;;;;;23.65;8.07;;;;;;;7.12;100.00;100730.75;5101367;28;20471;-77
2020/12/18 03:56:39;;;;;;;17.42;7.38;;;;;;;7.13;100.00;100723.28;5097386;28;20031;-78
2020/12/18 03:59:04;;;;;;;15.40;7.43;;;;;;;7.15;100.00;100718.34;5088283;28;20020;-77
2020/12/18 04:01:30;;;;;;;16.35;8.60;;;;;;;7.15;100.00;100718.34;5082219;28;20035;-77
2020/12/18 04:03:55;;;;;;;30.23;14.15;;;;;;;7.18;100.00;100728.84;5063452;28;20043;-76
2020/12/18 04:06:21;;;;;;;398.73;226.85;;;;;;;7.32;100.00;100723.69;5067583;28;20047;-77
2020/12/18 04:08:47;;;;;;;352.52;198.80;;;;;;;7.35;100.00;100731.44;5063730;28;20063;-77
2020/12/18 04:11:13;;;;;;;266.98;141.88;;;;;;;7.36;100.00;100731.19;5071603;28;20039;-77
2020/12/18 04:13:39;;;;;;;257.48;132.77;;;;;;;7.36;100.00;100742.25;5077001;28;20056;-77
2020/12/18 04:16:09;;;;;;;249.15;128.90;;;;;;;7.37;100.00;100735.59;5077682;28;20534;-77
2020/12/18 04:18:35;;;;;;;192.20;103.75;;;;;;;7.39;100.00;100735.34;5101714;28;20046;-76
2020/12/18 04:21:01;;;;;;;166.52;80.80;;;;;;;7.39;100.00;100733.41;5064229;28;20031;-76
2020/12/18 04:23:26;;;;;;;175.07;91.35;;;;;;;7.39;100.00;100738.94;5046650;28;20048;-77
2020/12/18 04:25:52;;;;;;;143.10;73.05;;;;;;;7.41;100.00;100737.84;5027332;28;20483;-77
2020/12/18 04:28:18;;;;;;;137.48;71.88;;;;;;;7.41;100.00;100732.31;5062350;28;20024;-76
2020/12/18 04:30:44;;;;;;;127.88;64.40;;;;;;;7.41;100.00;100729.53;5062518;28;20403;-77
2020/12/18 04:33:09;;;;;;;131.38;67.90;;;;;;;7.42;100.00;100725.69;5064116;28;20475;-77
2020/12/18 04:35:35;;;;;;;105.85;54.58;;;;;;;7.42;100.00;100723.75;5053228;28;20074;-77
2020/12/18 04:38:00;;;;;;;108.43;53.78;;;;;;;7.44;100.00;100723.47;5055853;28;20020;-77
2020/12/18 04:40:27;;;;;;;79.05;37.55;;;;;;;7.45;100.00;100722.41;5056359;28;20399;-77
2020/12/18 04:42:53;;;;;;;82.53;38.85;;;;;;;7.46;100.00;100711.06;5066543;28;20032;-76
2020/12/18 04:45:19;;;;;;;88.20;44.22;;;;;;;7.47;100.00;100714.69;5066664;28;20067;-77
2020/12/18 04:47:47;;;;;;;93.50;48.10;;;;;;;7.48;100.00;100710.81;5069917;28;20035;-76
2020/12/18 04:50:13;;;;;;;94.80;45.55;;;;;;;7.48;100.00;100703.34;5095691;28;20442;-77
2020/12/18 04:52:38;;;;;;;83.43;43.70;;;;;;;7.49;100.00;100701.41;5061632;28;20035;-77
2020/12/18 04:55:04;;;;;;;72.88;36.47;;;;;;;7.50;100.00;100692.84;5045993;28;20051;-77
2020/12/18 04:57:33;;;;;;;73.10;35.42;;;;;;;7.53;100.00;100697.84;5051785;28;20069;-77
2020/12/18 05:00:01;;;;;;;62.45;29.45;;;;;;;7.54;100.00;100693.13;5087339;28;20043;-77
2020/12/18 05:02:29;;;;;;;90.63;45.65;;;;;;;7.55;100.00;100689.25;5064990;28;20040;-77
2020/12/18 05:04:56;;;;;;;72.00;33.60;;;;;;;7.55;100.00;100678.22;5063805;28;20673;-76
2020/12/18 05:07:22;;;;;;;76.80;39.65;;;;;;;7.56;100.00;100685.41;5048152;28;20384;-76
2020/12/18 05:09:52;;;;;;;78.85;38.08;;;;;;;7.57;100.00;100692.59;5072048;28;20024;-76
2020/12/18 05:12:18;;;;;;;54.47;26.80;;;;;;;7.59;100.00;100693.16;5066202;28;20110;-77
2020/12/18 05:14:43;;;;;;;59.55;28.05;;;;;;;7.59;100.00;100690.41;5062399;28;20062;-76
2020/12/18 05:17:11;;;;;;;54.88;27.48;;;;;;;7.62;100.00;100692.63;5080272;28;20019;-77
2020/12/18 05:19:38;;;;;;;45.20;24.98;;;;;;;7.61;100.00;100694.56;5097246;28;20024;-77
2020/12/18 05:22:05;;;;;;;59.75;29.30;;;;;;;7.64;100.00;100700.66;5044874;28;20040;-77
2020/12/18 05:24:31;;;;;;;52.90;25.65;;;;;;;7.64;100.00;100701.47;5047668;28;20028;-77
2020/12/18 05:26:58;;;;;;;51.60;25.55;;;;;;;7.65;100.00;100689.31;5048287;28;20422;-76
2020/12/18 05:29:24;;;;;;;65.97;33.03;;;;;;;7.65;100.00;100694.84;5080366;28;20059;-77
2020/12/18 05:31:49;;;;;;;44.92;25.25;;;;;;;7.68;100.00;100699.84;5080567;28;20089;-77
2020/12/18 05:34:15;;;;;;;48.83;24.67;;;;;;;7.68;100.00;100699.84;5047900;28;20077;-77
2020/12/18 05:36:41;;;;;;;47.28;22.20;;;;;;;7.70;100.00;100703.16;5079982;28;20106;-76
2020/12/18 05:39:07;;;;;;;48.70;22.83;;;;;;;7.71;100.00;100698.47;5096838;28;20076;-77
2020/12/18 05:41:32;;;;;;;47.22;23.42;;;;;;;7.71;100.00;100704.81;5081441;28;20032;-77
2020/12/18 05:43:58;;;;;;;52.10;26.50;;;;;;;7.73;100.00;100697.09;5081978;28;20146;-77
2020/12/18 05:46:25;;;;;;;43.08;20.98;;;;;;;7.74;100.00;100695.16;5079213;28;20391;-77
2020/12/18 05:48:56;;;;;;;43.17;21.17;;;;;;;7.74;100.00;100704.28;5079995;28;20024;-77
2020/12/18 05:51:33;;;;;;;49.40;24.50;;;;;;;7.75;100.00;100703.19;5082208;28;20036;-77
2020/12/18 05:54:12;;;;;;;39.50;18.85;;;;;;;7.78;100.00;100704.59;5087676;28;20031;-77
2020/12/18 05:56:38;;;;;;;46.38;21.50;;;;;;;7.78;100.00;100704.59;5063278;28;20079;-77
2020/12/18 05:59:15;;;;;;;38.05;19.00;;;;;;;7.78;100.00;100702.66;5078954;28;20034;-77
2020/12/18 06:01:41;;;;;;;39.78;19.80;;;;;;;7.80;100.00;100702.34;5081301;28;20031;-77
2020/12/18 06:04:11;;;;;;;41.70;19.40;;;;;;;7.81;100.00;100701.28;5081911;28;20040;-77
2020/12/18 06:06:50;;;;;;;44.65;20.85;;;;;;;7.81;100.00;100701.28;5072150;28;20043;-78
2020/12/18 06:09:45;;;;;;;42.95;20.15;;;;;;;7.81;100.00;100699.34;5035099;28;20040;-77
2020/12/18 06:12:28;;;;;;;;;;;;;;;;;;;;;
2020/12/18 06:15:43;;;;;;;37.95;19.02;;;;;;;7.82;100.00;100706.50;5073526;28;20025;-77
2020/12/18 06:18:42;;;;;;;160.80;80.63;;;;;;;7.83;100.00;100691.59;5046907;28;20028;-77
2020/12/18 06:21:23;;;;;;;95.55;48.38;;;;;;;7.86;100.00;100697.72;5062767;28;20047;-77
2020/12/18 06:24:19;;;;;;;88.82;40.97;;;;;;;7.87;100.00;100693.81;5075999;28;20039;-77
2020/12/18 06:27:26;;;;;;;83.20;36.85;;;;;;;7.86;100.00;100697.72;5077118;28;20106;-77
2020/12/18 06:30:16;;;;;;;54.20;27.23;;;;;;;7.87;100.00;100697.41;5080693;28;20439;-77
2020/12/18 06:36:54;;;;;;;53.25;24.00;;;;;;;7.90;100.00;100701.56;5093629;28;20044;-77
2020/12/18 06:39:42;;;;;;;49.85;19.63;;;;;;;7.90;100.00;100704.34;5101046;27;20056;-77
2020/12/18 06:42:25;;;;;;;43.33;21.25;;;;;;;7.91;100.00;100703.22;5035141;28;20072;-77
2020/12/18 06:45:15;;;;;;;61.10;27.02;;;;;;;7.90;100.00;100696.03;5048460;28;20476;-77
2020/12/18 06:47:53;;;;;;;56.83;25.63;;;;;;;7.92;100.00;100696.63;5033945;28;20036;-77
2020/12/18 06:51:00;;;;;;;55.15;26.70;;;;;;;7.92;100.00;100693.84;5041276;28;20040;-77
2020/12/18 06:53:31;;;;;;;59.38;27.73;;;;;;;7.91;100.00;100697.69;5092614;28;20044;-77
2020/12/18 06:56:29;;;;;;;50.55;22.52;;;;;;;7.90;100.00;100694.09;5073190;28;20043;-77
2020/12/18 06:58:57;;;;;;;60.25;28.92;;;;;;;7.90;100.00;100701.56;5062918;28;20067;-75
2020/12/18 07:01:34;;;;;;;42.13;18.95;;;;;;;7.92;100.00;100700.22;5064668;28;20066;-77
2020/12/18 07:04:23;;;;;;;50.20;21.80;;;;;;;7.92;100.00;100702.16;5099870;28;20087;-77
2020/12/18 07:07:43;;;;;;;53.47;25.90;;;;;;;7.93;100.00;100717.63;5071198;28;20035;-78
2020/12/18 07:13:26;;;;;;;56.13;24.58;;;;;;;7.93;100.00;100710.16;5072388;28;20494;-77
2020/12/18 07:16:15;;;;;;;57.05;25.33;;;;;;;7.93;100.00;100706.56;5080039;28;20020;-77
2020/12/18 07:19:01;;;;;;;51.97;26.02;;;;;;;7.94;100.00;100699.91;5057790;28;20089;-77
2020/12/18 07:21:32;;;;;;;52.40;24.25;;;;;;;7.94;100.00;100698.00;5039943;28;20066;-76
2020/12/18 07:24:04;;;;;;;52.88;26.52;;;;;;;7.93;100.00;100696.31;5081746;28;20099;-81
2020/12/18 07:26:43;;;;;;;45.17;23.27;;;;;;;7.94;100.00;100703.53;5066490;28;20037;-78
2020/12/18 07:29:35;;;;;;;45.75;22.42;;;;;;;7.94;100.00;100697.16;5048127;28;20020;-77
2020/12/18 07:32:26;;;;;;;51.47;24.05;;;;;;;7.94;100.00;100695.25;5075647;28;20531;-77
2020/12/18 07:35:11;;;;;;;39.40;21.08;;;;;;;7.95;100.00;100682.25;5079663;28;20047;-77
2020/12/18 07:38:16;;;;;;;44.38;23.52;;;;;;;7.95;100.00;100671.19;5092007;28;20040;-77
2020/12/18 07:40:58;;;;;;;48.65;22.90;;;;;;;7.94;100.00;100656.53;5068512;28;20036;-77
2020/12/18 07:43:55;;;;;;;43.22;20.50;;;;;;;7.96;100.00;100659.00;5047701;28;20131;-78
2020/12/18 07:46:41;;;;;;;43.10;20.40;;;;;;;7.96;100.00;100657.06;5055703;28;20044;-77
2020/12/18 07:49:21;;;;;;;39.42;20.13;;;;;;;7.95;100.00;100649.88;5079863;28;20044;-77
2020/12/18 07:51:55;;;;;;;39.72;20.30;;;;;;;7.97;100.00;100660.69;5070114;28;20032;-77
2020/12/18 07:54:27;;;;;;;41.10;20.05;;;;;;;7.97;100.00;100657.91;5050368;28;20036;-77
2020/12/18 07:57:22;;;;;;;37.25;18.83;;;;;;;7.98;100.00;100642.97;4992437;28;20116;-77
2020/12/18 08:00:31;;;;;;;42.33;20.08;;;;;;;8.00;100.00;100629.72;5090228;28;20496;-77
2020/12/18 08:03:05;;;;;;;38.28;19.73;;;;;;;7.99;100.00;100634.38;5051757;28;20130;-77
2020/12/18 08:06:12;;;;;;;43.17;19.88;;;;;;;7.99;100.00;100628.84;5042629;28;20032;-77
2020/12/18 08:09:11;;;;;;;36.60;20.13;;;;;;;8.02;100.00;100619.19;5089630;28;20042;-77
2020/12/18 08:12:00;;;;;;;38.30;20.75;;;;;;;8.03;100.00;100610.63;5048379;28;20052;-78
2020/12/18 08:14:38;;;;;;;39.42;20.48;;;;;;;8.02;100.00;100617.28;5069079;28;20027;-77
2020/12/18 08:17:05;;;;;;;38.80;19.52;;;;;;;8.03;100.00;100613.38;5053127;28;20027;-77
2020/12/18 08:19:57;;;;;;;40.65;19.85;;;;;;;8.05;100.00;100610.31;5066746;28;20062;-77
2020/12/18 08:22:46;;;;;;;36.85;19.27;;;;;;;8.04;100.00;100603.97;5084458;28;20043;-77
2020/12/18 08:25:35;;;;;;;40.30;20.23;;;;;;;8.06;100.00;100600.94;5084076;28;20032;-77
2020/12/18 08:28:03;;;;;;;32.22;17.83;;;;;;;8.06;100.00;100601.78;5042957;28;20493;-77
2020/12/18 08:30:32;;;;;;;32.60;18.63;;;;;;;8.08;100.00;100604.28;5057077;28;20076;-77
2020/12/18 08:33:09;;;;;;;38.13;18.00;;;;;;;8.08;100.00;100582.16;5109607;28;20043;-77
2020/12/18 08:35:53;;;;;;;37.65;18.30;;;;;;;8.10;100.00;100590.16;5083946;28;20103;-77
2020/12/18 08:38:27;;;;;;;31.48;17.52;;;;;;;8.11;100.00;100586.25;5062819;28;20036;-78
2020/12/18 08:41:01;;;;;;;35.45;18.05;;;;;;;8.13;100.00;100595.94;5047315;28;20035;-77
2020/12/18 08:43:42;;;;;;;32.50;17.90;;;;;;;8.15;100.00;100592.94;5078171;28;20039;-78
2020/12/18 08:46:23;;;;;;;32.88;17.02;;;;;;;8.17;100.00;100594.31;5083585;28;20028;-77
2020/12/18 08:48:57;;;;;;;33.00;16.90;;;;;;;8.18;100.00;100592.38;5078276;28;20036;-77
2020/12/18 08:51:40;;;;;;;34.90;16.60;;;;;;;8.20;100.00;100598.47;5065121;28;20027;-77
2020/12/18 08:54:39;;;;;;;30.20;17.25;;;;;;;8.20;100.00;100595.69;5080750;28;20078;-77
2020/12/18 08:57:45;;;;;;;28.70;16.27;;;;;;;8.19;100.00;100589.34;5070680;28;20028;-77
2020/12/18 09:00:20;;;;;;;35.50;17.27;;;;;;;8.22;100.00;100590.72;5103693;28;20031;-77
2020/12/18 09:03:01;;;;;;;30.35;17.38;;;;;;;8.22;100.00;100594.31;5065332;28;20407;-77
2020/12/18 09:05:36;;;;;;;31.90;17.23;;;;;;;8.23;100.00;100604.25;5049390;28;20073;-77
2020/12/18 09:08:16;;;;;;;30.23;17.08;;;;;;;8.22;100.00;100591.56;5049423;28;20027;-73
2020/12/18 09:10:45;;;;;;;38.85;19.30;;;;;;;8.23;100.00;100584.91;5082349;28;20047;-74
2020/12/18 09:13:24;;;;;;;35.95;19.65;;;;;;;8.24;100.00;100588.50;5079163;28;20051;-72
2020/12/18 09:16:02;;;;;;;30.75;18.77;;;;;;;8.24;100.00;100592.09;5076327;28;20046;-72
2020/12/18 09:18:34;;;;;;;34.45;19.35;;;;;;;8.27;100.00;100594.31;5117949;28;20036;-72
2020/12/18 09:21:16;;;;;;;32.17;18.23;;;;;;;8.29;100.00;100592.09;5075234;28;20035;-72
2020/12/18 09:23:42;;;;;;;36.20;19.55;;;;;;;8.33;100.00;100583.22;5075095;28;20036;-72
2020/12/18 09:26:08;;;;;;;30.13;18.73;;;;;;;8.34;100.00;100591.25;5065012;28;20080;-72
2020/12/18 09:28:41;;;;;;;28.90;17.65;;;;;;;8.39;100.00;100584.94;5114080;28;20042;-76
2020/12/18 09:31:19;;;;;;;;;;;;;;;8.45;100.00;100590.19;5060300;28;20034;-76
2020/12/18 09:33:51;;;;;;;195.68;90.18;;;;;;;8.47;100.00;100579.69;5098366;28;19959;-76
2020/12/18 09:36:19;;;;;;;109.55;52.45;;;;;;;8.48;100.00;100591.56;5091743;28;20027;-77
2020/12/18 09:38:52;;;;;;;127.88;62.53;;;;;;;8.50;100.00;100581.06;5065455;28;20031;-77
2020/12/18 09:41:28;;;;;;;71.88;37.20;;;;;;;8.48;100.00;100569.44;5081846;28;20035;-76
2020/12/18 09:43:56;;;;;;;79.63;38.92;;;;;;;8.49;100.00;100579.38;5068343;28;20176;-75
2020/12/18 09:46:23;;;;;;;49.88;26.48;;;;;;;8.52;100.00;100573.28;5077532;28;20047;-73
2020/12/18 09:48:48;;;;;;;51.25;28.25;;;;;;;8.53;100.00;100577.72;5114828;28;20035;-73
2020/12/18 09:51:15;;;;;;;44.78;23.88;;;;;;;8.53;100.00;100572.19;5098002;28;20034;-73
2020/12/18 09:53:40;;;;;;;44.30;24.95;;;;;;;8.55;100.00;100572.72;5098168;28;20102;-73
2020/12/18 09:56:09;;;;;;;37.25;22.10;;;;;;;8.53;100.00;100572.19;5080956;28;20053;-73
2020/12/18 09:58:35;;;;;;;40.65;20.98;;;;;;;8.55;100.00;100556.09;5113604;28;20042;-73
2020/12/18 10:01:00;;;;;;;42.22;24.70;;;;;;;8.55;100.00;100549.75;5115866;28;20027;-72
2020/12/18 10:03:26;;;;;;;44.08;23.65;;;;;;;8.57;100.00;100545.59;5117181;28;20038;-72
2020/12/18 10:05:52;;;;;;;40.38;22.10;;;;;;;8.58;100.00;100544.50;5114087;28;20396;-72
2020/12/18 10:08:18;;;;;;;46.38;25.02;;;;;;;8.60;100.00;100539.50;5079474;28;20035;-72
2020/12/18 10:10:43;;;;;;;40.85;22.30;;;;;;;8.62;100.00;100539.22;5114595;28;20073;-72
2020/12/18 10:13:09;;;;;;;49.70;27.27;;;;;;;8.64;100.00;100534.25;5082511;28;20467;-76
2020/12/18 10:15:34;;;;;;;178.48;97.88;;;;;;;8.71;100.00;100537.53;5061389;28;20024;-76
2020/12/18 10:18:00;;;;;;;99.82;53.97;;;;;;;8.72;100.00;100533.69;5061803;28;20027;-75
2020/12/18 10:20:26;;;;;;;92.43;50.42;;;;;;;8.71;100.00;100529.22;5079482;28;20074;-76
2020/12/18 10:22:54;;;;;;;65.82;37.00;;;;;;;8.73;100.00;100533.38;5082159;28;20463;-76
2020/12/18 10:25:20;;;;;;;63.65;37.08;;;;;;;8.74;100.00;100534.19;5079939;28;20051;-75
2020/12/18 10:27:48;;;;;;;68.18;38.03;;;;;;;8.75;100.00;100522.03;5080826;28;20023;-76
2020/12/18 10:30:14;;;;;;;74.45;41.58;;;;;;;8.76;100.00;100512.59;5095271;28;20039;-76
2020/12/18 10:32:41;;;;;;;59.38;34.40;;;;;;;8.78;100.00;100495.72;5061602;28;20028;-76
2020/12/18 10:35:12;;;;;;;53.65;30.75;;;;;;;8.78;100.00;100498.50;5111951;28;20074;-77
2020/12/18 10:37:47;;;;;;;42.75;24.58;;;;;;;8.80;100.00;100491.53;5074787;28;20020;-76
2020/12/18 10:40:14;;;;;;;38.90;23.83;;;;;;;8.82;100.00;100488.50;5080554;28;20395;-77
2020/12/18 10:42:40;;;;;;;41.95;24.50;;;;;;;8.86;100.00;100486.81;5098545;28;20032;-76
2020/12/18 10:45:14;;;;;;;35.85;21.83;;;;;;;8.87;100.00;100486.53;5093733;28;20361;-77
2020/12/18 10:47:41;;;;;;;35.90;20.98;;;;;;;8.90;100.00;100491.50;5059932;28;20013;-76
2020/12/18 10:50:10;;;;;;;29.50;17.77;;;;;;;8.93;100.00;100498.41;5086091;28;20194;-76
2020/12/18 10:52:36;;;;;;;32.70;19.52;;;;;;;8.97;100.00;100496.75;5079660;28;20035;-76
2020/12/18 10:55:01;;;;;;;32.63;19.23;;;;;;;9.01;100.00;100492.28;5048153;28;20023;-76
2020/12/18 10:57:27;;;;;;;32.80;19.85;;;;;;;9.03;100.00;100487.31;5098154;28;20031;-76
2020/12/18 10:59:52;;;;;;;28.75;17.02;;;;;;;9.07;100.00;100484.78;5062453;28;21014;-76
2020/12/18 11:02:18;;;;;;;27.10;17.00;;;;;;;9.10;100.00;100473.94;5063336;28;20035;-76
2020/12/18 11:04:44;;;;;;;28.27;16.05;;;;;;;9.10;100.00;100476.72;5097656;28;20047;-76
2020/12/18 11:07:10;;;;;;;24.50;15.15;;;;;;;9.14;100.00;100483.38;5112769;28;20499;-76
2020/12/18 11:09:35;;;;;;;22.48;14.88;;;;;;;9.15;100.00;100475.88;5082296;28;20059;-76
2020/12/18 11:12:01;;;;;;;23.77;14.70;;;;;;;9.16;100.00;100470.06;5050863;28;20036;-76
2020/12/18 11:14:27;;;;;;;22.25;14.52;;;;;;;9.20;100.00;100473.09;5054428;28;20364;-76
2020/12/18 11:16:58;;;;;;;22.17;14.48;;;;;;;9.23;100.00;100477.22;5074060;28;20063;-76
2020/12/18 11:19:24;;;;;;;24.80;14.60;;;;;;;9.25;100.00;100469.44;5060211;28;20053;-76
2020/12/18 11:21:49;;;;;;;24.88;15.18;;;;;;;9.27;100.00;100478.28;5082267;28;20487;-76
2020/12/18 11:24:15;;;;;;;21.85;14.38;;;;;;;9.29;100.00;100465.81;5051003;28;20030;-76
2020/12/18 11:26:41;;;;;;;22.92;14.48;;;;;;;9.32;100.00;100467.19;5064579;28;20031;-76
2020/12/18 11:29:07;;;;;;;21.63;13.73;;;;;;;9.34;100.00;100468.56;5096566;28;20032;-76
2020/12/18 11:31:37;;;;;;;22.33;14.20;;;;;;;9.37;99.54;100464.38;5093590;28;20670;-76
2020/12/18 11:34:02;;;;;;;22.50;14.38;;;;;;;9.40;99.82;100466.59;5093224;28;20024;-76
2020/12/18 11:36:28;;;;;;;21.13;12.68;;;;;;;9.45;99.47;100466.56;5082079;28;20386;-76
2020/12/18 11:38:53;;;;;;;21.13;13.82;;;;;;;9.46;99.39;100465.44;5097674;28;20430;-76
2020/12/18 11:41:20;;;;;;;22.10;12.60;;;;;;;9.49;99.43;100472.34;5082225;28;20032;-76